createdAt,value
2022-11-05T00:00:58.025Z,11.82
2022-11-05T00:01:58.083Z,11.82
2022-11-05T00:02:58.048Z,11.79
2022-11-05T00:03:58.020Z,11.79
2022-11-05T00:04:57.991Z,11.74
2022-11-05T00:05:57.974Z,11.82
2022-11-05T00:06:57.956Z,11.84
2022-11-05T00:07:57.977Z,11.80
2022-11-05T00:08:57.935Z,11.71
2022-11-05T00:09:57.922Z,11.76
2022-11-05T00:10:57.925Z,11.76
2022-11-05T00:11:57.912Z,11.77
2022-11-05T00:12:57.908Z,11.79
2022-11-05T00:13:57.881Z,11.85
2022-11-05T00:14:57.890Z,11.84
2022-11-05T00:15:57.859Z,11.73
2022-11-05T00:16:57.842Z,11.74
2022-11-05T00:17:57.864Z,11.82
2022-11-05T00:18:57.822Z,11.76
2022-11-05T00:19:57.816Z,11.77
2022-11-05T00:20:57.806Z,11.79
2022-11-05T00:21:57.804Z,11.79
2022-11-05T00:22:57.804Z,11.77
2022-11-05T00:23:57.771Z,11.85
2022-11-05T00:24:57.761Z,11.82
2022-11-05T00:25:57.749Z,11.74
2022-11-05T00:26:57.755Z,11.76
2022-11-05T00:27:57.747Z,11.82
2022-11-05T00:28:57.715Z,11.84
2022-11-05T00:29:57.700Z,11.76
2022-11-05T00:30:57.718Z,11.85
2022-11-05T00:31:57.681Z,11.79
2022-11-05T00:32:57.699Z,11.89
2022-11-05T00:33:57.673Z,11.80
2022-11-05T00:34:57.650Z,11.84
2022-11-05T00:35:57.639Z,11.74
2022-11-05T00:36:57.627Z,11.77
2022-11-05T00:37:57.634Z,11.80
2022-11-05T00:38:57.629Z,11.71
2022-11-05T00:39:57.595Z,11.77
2022-11-05T00:40:57.585Z,11.73
2022-11-05T00:41:57.568Z,11.77
2022-11-05T00:42:57.564Z,11.73
2022-11-05T00:43:57.574Z,11.82
2022-11-05T00:44:57.538Z,11.71
2022-11-05T00:45:57.521Z,11.84
2022-11-05T00:46:59.967Z,11.79
2022-11-05T00:47:57.505Z,11.84
2022-11-05T00:48:57.516Z,11.80
2022-11-05T00:49:57.485Z,11.82
2022-11-05T00:50:57.471Z,11.76
2022-11-05T00:51:57.455Z,11.77
2022-11-05T00:52:57.793Z,11.76
2022-11-05T00:53:57.451Z,11.73
2022-11-05T00:54:57.428Z,11.80
2022-11-05T00:55:57.417Z,11.82
2022-11-05T00:57:01.937Z,11.80
2022-11-05T00:57:58.388Z,11.74
2022-11-05T00:58:57.404Z,11.82
2022-11-05T00:59:57.373Z,11.74
2022-11-05T01:00:57.367Z,11.74
2022-11-05T01:01:57.486Z,11.77
2022-11-05T01:02:57.465Z,11.82
2022-11-05T01:03:57.352Z,11.76
2022-11-05T01:04:57.318Z,11.77
2022-11-05T01:05:57.299Z,11.77
2022-11-05T01:06:57.293Z,11.80
2022-11-05T01:07:57.282Z,11.79
2022-11-05T01:08:57.296Z,11.76
2022-11-05T01:09:57.286Z,11.70
2022-11-05T01:10:57.257Z,11.77
2022-11-05T01:11:57.235Z,11.77
2022-11-05T01:12:57.231Z,11.79
2022-11-05T01:13:57.238Z,11.77
2022-11-05T01:14:57.204Z,11.80
2022-11-05T01:15:57.208Z,11.70
2022-11-05T01:16:57.183Z,11.79
2022-11-05T01:17:57.170Z,11.71
2022-11-05T01:18:57.201Z,11.77
2022-11-05T01:19:57.148Z,11.69
2022-11-05T01:20:57.146Z,11.77
2022-11-05T01:21:57.132Z,11.73
2022-11-05T01:22:57.121Z,11.77
2022-11-05T01:23:57.126Z,11.79
2022-11-05T01:24:57.094Z,11.71
2022-11-05T01:25:57.097Z,11.67
2022-11-05T01:26:57.073Z,11.73
2022-11-05T01:27:57.061Z,11.70
2022-11-05T01:28:57.146Z,11.76
2022-11-05T01:29:57.060Z,11.70
2022-11-05T01:30:57.027Z,11.76
2022-11-05T01:31:57.035Z,11.76
2022-11-05T01:32:57.009Z,11.73
2022-11-05T01:33:56.991Z,11.82
2022-11-05T01:34:57.004Z,11.69
2022-11-05T01:35:56.997Z,11.70
2022-11-05T01:36:56.965Z,11.80
2022-11-05T01:37:56.946Z,11.70
2022-11-05T01:38:56.942Z,11.76
2022-11-05T01:39:56.954Z,11.74
2022-11-05T01:40:56.918Z,11.71
2022-11-05T01:41:56.913Z,11.69
2022-11-05T01:42:56.896Z,11.77
2022-11-05T01:43:56.880Z,11.67
2022-11-05T01:44:56.900Z,11.69
2022-11-05T01:45:56.868Z,11.77
2022-11-05T01:46:56.851Z,11.73
2022-11-05T01:47:56.838Z,11.77
2022-11-05T01:49:02.702Z,11.67
2022-11-05T01:49:57.846Z,11.76
2022-11-05T01:50:56.826Z,11.79
2022-11-05T01:51:56.803Z,11.74
2022-11-05T01:52:56.783Z,11.79
2022-11-05T01:53:56.771Z,11.79
2022-11-05T01:54:56.760Z,11.69
2022-11-05T01:55:56.771Z,11.74
2022-11-05T01:56:56.766Z,11.64
2022-11-05T01:57:56.767Z,11.73
2022-11-05T01:58:56.731Z,11.73
2022-11-05T01:59:56.704Z,11.67
2022-11-05T02:00:56.701Z,11.59
2022-11-05T02:01:56.868Z,11.69
2022-11-05T02:02:56.760Z,11.74
2022-11-05T02:03:56.681Z,11.70
2022-11-05T02:04:56.651Z,11.66
2022-11-05T02:05:56.643Z,11.70
2022-11-05T02:06:56.652Z,11.73
2022-11-05T02:07:56.617Z,11.61
2022-11-05T02:08:56.625Z,11.66
2022-11-05T02:09:56.592Z,11.67
2022-11-05T02:10:56.602Z,11.66
2022-11-05T02:11:56.583Z,11.66
2022-11-05T02:12:56.567Z,11.62
2022-11-05T02:13:56.578Z,11.69
2022-11-05T02:14:56.545Z,11.66
2022-11-05T02:15:56.528Z,11.62
2022-11-05T02:16:56.522Z,11.64
2022-11-05T02:17:56.502Z,11.66
2022-11-05T02:18:56.522Z,11.59
2022-11-05T02:19:56.490Z,11.69
2022-11-05T02:20:56.475Z,11.58
2022-11-05T02:21:56.463Z,11.67
2022-11-05T02:22:56.474Z,11.56
2022-11-05T02:23:56.459Z,11.64
2022-11-05T02:24:56.477Z,11.56
2022-11-05T02:25:56.441Z,11.64
2022-11-05T02:26:56.425Z,11.62
2022-11-05T02:27:56.422Z,11.64
2022-11-05T02:28:56.381Z,11.55
2022-11-05T02:29:56.374Z,11.66
2022-11-05T02:30:56.370Z,11.69
2022-11-05T02:31:56.353Z,11.67
2022-11-05T02:32:56.377Z,11.55
2022-11-05T02:33:56.326Z,11.67
2022-11-05T02:34:56.323Z,11.58
2022-11-05T02:35:56.310Z,11.59
2022-11-05T02:36:56.294Z,11.56
2022-11-05T02:37:56.284Z,11.55
2022-11-05T02:38:56.312Z,11.56
2022-11-05T02:39:56.266Z,11.56
2022-11-05T02:40:56.249Z,11.54
2022-11-05T02:42:00.516Z,11.56
2022-11-05T02:42:57.228Z,11.56
2022-11-05T02:43:56.247Z,11.49
2022-11-05T02:44:56.212Z,11.52
2022-11-05T02:45:56.193Z,11.58
2022-11-05T02:46:56.187Z,11.55
2022-11-05T02:47:56.174Z,11.55
2022-11-05T02:48:56.181Z,11.52
2022-11-05T02:49:56.186Z,11.52
2022-11-05T02:50:56.139Z,11.56
2022-11-05T02:51:56.130Z,11.58
2022-11-05T02:52:56.124Z,11.55
2022-11-05T02:53:56.107Z,11.52
2022-11-05T02:54:56.118Z,11.55
2022-11-05T02:55:56.107Z,11.51
2022-11-05T02:56:56.081Z,11.54
2022-11-05T02:57:56.062Z,11.51
2022-11-05T02:58:56.049Z,11.56
2022-11-05T02:59:56.040Z,11.51
2022-11-05T03:00:56.045Z,11.46
2022-11-05T03:01:56.210Z,11.45
2022-11-05T03:02:56.094Z,11.48
2022-11-05T03:03:56.000Z,11.43
2022-11-05T03:04:55.982Z,11.48
2022-11-05T03:05:55.996Z,11.46
2022-11-05T03:06:55.969Z,11.48
2022-11-05T03:07:55.949Z,11.52
2022-11-05T03:08:55.944Z,11.49
2022-11-05T03:09:55.928Z,11.41
2022-11-05T03:10:55.963Z,11.49
2022-11-05T03:11:55.910Z,11.54
2022-11-05T03:12:55.901Z,11.45
2022-11-05T03:13:55.890Z,11.45
2022-11-05T03:14:55.875Z,11.43
2022-11-05T03:15:55.879Z,11.43
2022-11-05T03:16:55.854Z,11.43
2022-11-05T03:17:55.847Z,11.46
2022-11-05T03:18:55.837Z,11.43
2022-11-05T03:19:55.822Z,11.40
2022-11-05T03:20:55.834Z,11.40
2022-11-05T03:21:55.803Z,11.37
2022-11-05T03:22:55.791Z,11.38
2022-11-05T03:23:55.774Z,11.37
2022-11-05T03:24:55.771Z,11.30
2022-11-05T03:25:55.774Z,11.34
2022-11-05T03:26:55.845Z,11.33
2022-11-05T03:27:55.755Z,11.34
2022-11-05T03:28:55.727Z,11.27
2022-11-05T03:29:55.711Z,11.22
2022-11-05T03:30:55.701Z,11.31
2022-11-05T03:31:55.713Z,11.30
2022-11-05T03:32:55.706Z,11.30
2022-11-05T03:33:55.667Z,11.23
2022-11-05T03:34:55.655Z,11.28
2022-11-05T03:35:55.642Z,11.22
2022-11-05T03:36:55.659Z,11.31
2022-11-05T03:37:55.639Z,11.23
2022-11-05T03:38:55.616Z,11.22
2022-11-05T03:39:55.603Z,11.20
2022-11-05T03:40:55.590Z,11.23
2022-11-05T03:41:55.607Z,11.23
2022-11-05T03:42:55.727Z,11.18
2022-11-05T03:43:55.568Z,11.22
2022-11-05T03:44:55.542Z,11.22
2022-11-05T03:45:55.553Z,11.23
2022-11-05T03:46:55.545Z,11.18
2022-11-05T03:47:55.520Z,11.16
2022-11-05T03:48:55.644Z,11.13
2022-11-05T03:49:55.484Z,11.18
2022-11-05T03:50:55.501Z,11.22
2022-11-05T03:51:55.522Z,11.16
2022-11-05T03:52:55.455Z,11.22
2022-11-05T03:53:55.443Z,11.16
2022-11-05T03:54:55.434Z,11.20
2022-11-05T03:55:55.442Z,11.18
2022-11-05T03:56:55.414Z,11.18
2022-11-05T03:57:55.398Z,11.15
2022-11-05T03:58:58.969Z,11.11
2022-11-05T03:59:55.379Z,11.11
2022-11-05T04:00:55.393Z,11.09
2022-11-05T04:01:55.488Z,11.19
2022-11-05T04:02:55.497Z,11.09
2022-11-05T04:03:55.363Z,11.04
2022-11-05T04:04:55.321Z,11.09
2022-11-05T04:05:55.311Z,11.00
2022-11-05T04:06:55.299Z,11.08
2022-11-05T04:07:55.287Z,11.09
2022-11-05T04:08:55.284Z,11.09
2022-11-05T04:09:55.322Z,10.98
2022-11-05T04:10:55.258Z,11.04
2022-11-05T04:11:55.245Z,10.97
2022-11-05T04:12:55.233Z,11.13
2022-11-05T04:13:55.223Z,10.98
2022-11-05T04:14:55.250Z,11.04
2022-11-05T04:15:55.201Z,10.94
2022-11-05T04:16:55.190Z,11.04
2022-11-05T04:17:55.177Z,11.03
2022-11-05T04:18:55.167Z,11.08
2022-11-05T04:19:55.283Z,11.05
2022-11-05T04:20:55.148Z,11.04
2022-11-05T04:21:55.136Z,11.01
2022-11-05T04:22:55.124Z,11.01
2022-11-05T04:23:55.115Z,11.03
2022-11-05T04:24:55.128Z,11.00
2022-11-05T04:25:55.096Z,11.01
2022-11-05T04:26:55.082Z,11.08
2022-11-05T04:27:55.066Z,11.00
2022-11-05T04:28:55.059Z,10.98
2022-11-05T04:29:55.045Z,10.98
2022-11-05T04:30:55.077Z,11.05
2022-11-05T04:31:55.025Z,10.95
2022-11-05T04:32:55.020Z,11.03
2022-11-05T04:33:55.013Z,10.91
2022-11-05T04:34:55.018Z,10.93
2022-11-05T04:35:54.982Z,10.90
2022-11-05T04:36:54.972Z,10.93
2022-11-05T04:37:54.965Z,10.94
2022-11-05T04:38:54.953Z,10.95
2022-11-05T04:39:54.967Z,10.94
2022-11-05T04:40:54.925Z,10.87
2022-11-05T04:41:54.918Z,10.82
2022-11-05T04:42:54.902Z,10.85
2022-11-05T04:43:54.899Z,10.85
2022-11-05T04:44:54.902Z,10.93
2022-11-05T04:45:54.895Z,10.86
2022-11-05T04:46:54.931Z,10.90
2022-11-05T04:47:54.865Z,10.91
2022-11-05T04:48:54.858Z,10.90
2022-11-05T04:49:54.828Z,10.85
2022-11-05T04:50:54.840Z,10.85
2022-11-05T04:51:54.805Z,10.83
2022-11-05T04:52:54.803Z,10.78
2022-11-05T04:53:54.793Z,10.83
2022-11-05T04:54:54.780Z,10.79
2022-11-05T04:55:54.793Z,10.76
2022-11-05T04:56:54.760Z,10.79
2022-11-05T04:57:54.743Z,10.72
2022-11-05T04:58:54.732Z,10.78
2022-11-05T04:59:54.742Z,10.78
2022-11-05T05:00:54.790Z,10.73
2022-11-05T05:01:54.815Z,10.72
2022-11-05T05:02:54.711Z,10.72
2022-11-05T05:03:54.713Z,10.73
2022-11-05T05:04:54.664Z,10.67
2022-11-05T05:05:58.209Z,10.65
2022-11-05T05:06:55.639Z,10.75
2022-11-05T05:07:54.640Z,10.67
2022-11-05T05:08:54.640Z,10.70
2022-11-05T05:09:54.612Z,10.70
2022-11-05T05:10:54.598Z,10.65
2022-11-05T05:11:54.615Z,10.72
2022-11-05T05:12:54.576Z,10.68
2022-11-05T05:13:54.594Z,10.68
2022-11-05T05:14:54.560Z,10.62
2022-11-05T05:15:54.547Z,10.64
2022-11-05T05:16:54.536Z,10.64
2022-11-05T05:17:54.525Z,10.67
2022-11-05T05:18:54.557Z,10.61
2022-11-05T05:19:54.503Z,10.60
2022-11-05T05:20:54.493Z,10.61
2022-11-05T05:21:54.488Z,10.65
2022-11-05T05:22:54.471Z,10.58
2022-11-05T05:23:54.481Z,10.60
2022-11-05T05:24:54.449Z,10.52
2022-11-05T05:25:54.461Z,10.52
2022-11-05T05:26:54.424Z,10.48
2022-11-05T05:27:54.414Z,10.61
2022-11-05T05:28:54.410Z,10.49
2022-11-05T05:29:54.399Z,10.57
2022-11-05T05:30:58.590Z,10.55
2022-11-05T05:31:54.374Z,10.49
2022-11-05T05:32:54.359Z,10.54
2022-11-05T05:33:54.353Z,10.43
2022-11-05T05:34:54.462Z,10.54
2022-11-05T05:35:54.337Z,10.45
2022-11-05T05:36:54.337Z,10.48
2022-11-05T05:37:54.310Z,10.49
2022-11-05T05:38:54.293Z,10.48
2022-11-05T05:39:54.286Z,10.43
2022-11-05T05:40:54.277Z,10.48
2022-11-05T05:41:54.286Z,10.48
2022-11-05T05:42:54.252Z,10.52
2022-11-05T05:43:54.243Z,10.45
2022-11-05T05:44:54.251Z,10.43
2022-11-05T05:45:54.222Z,10.46
2022-11-05T05:46:54.204Z,10.43
2022-11-05T05:47:54.198Z,10.43
2022-11-05T05:48:54.193Z,10.45
2022-11-05T05:49:54.200Z,10.42
2022-11-05T05:50:54.187Z,10.43
2022-11-05T05:51:54.154Z,10.43
2022-11-05T05:52:54.150Z,10.38
2022-11-05T05:53:54.138Z,10.41
2022-11-05T05:54:54.143Z,10.42
2022-11-05T05:55:54.118Z,10.45
2022-11-05T05:56:54.099Z,10.45
2022-11-05T05:57:54.101Z,10.46
2022-11-05T05:58:54.105Z,10.43
2022-11-05T05:59:54.088Z,10.46
2022-11-05T06:00:54.070Z,10.43
2022-11-05T06:01:54.205Z,10.28
2022-11-05T06:02:54.138Z,10.38
2022-11-05T06:03:54.048Z,10.34
2022-11-05T06:04:54.015Z,10.36
2022-11-05T06:05:54.003Z,10.41
2022-11-05T06:06:54.010Z,10.38
2022-11-05T06:07:53.981Z,10.26
2022-11-05T06:08:53.993Z,10.28
2022-11-05T06:09:53.957Z,10.38
2022-11-05T06:10:54.016Z,10.30
2022-11-05T06:11:53.938Z,10.26
2022-11-05T06:12:53.922Z,10.30
2022-11-05T06:13:53.939Z,10.30
2022-11-05T06:14:53.901Z,10.30
2022-11-05T06:15:53.893Z,10.34
2022-11-05T06:16:53.883Z,10.30
2022-11-05T06:17:53.869Z,10.27
2022-11-05T06:18:53.878Z,10.28
2022-11-05T06:19:53.846Z,10.27
2022-11-05T06:20:53.869Z,10.26
2022-11-05T06:21:53.829Z,10.26
2022-11-05T06:22:53.840Z,10.26
2022-11-05T06:23:53.808Z,10.26
2022-11-05T06:24:53.819Z,10.23
2022-11-05T06:25:53.784Z,10.23
2022-11-05T06:26:53.776Z,10.27
2022-11-05T06:27:53.765Z,10.23
2022-11-05T06:28:53.762Z,10.26
2022-11-05T06:29:53.761Z,10.20
2022-11-05T06:30:53.731Z,10.24
2022-11-05T06:31:53.740Z,10.18
2022-11-05T06:32:53.707Z,10.24
2022-11-05T06:33:53.699Z,10.23
2022-11-05T06:34:53.684Z,10.26
2022-11-05T06:35:53.699Z,10.20
2022-11-05T06:36:53.667Z,10.20
2022-11-05T06:37:53.652Z,10.27
2022-11-05T06:38:53.657Z,10.16
2022-11-05T06:39:53.634Z,10.23
2022-11-05T06:40:53.649Z,10.14
2022-11-05T06:42:54.625Z,10.23
2022-11-05T06:43:53.588Z,10.21
2022-11-05T06:44:53.572Z,10.16
2022-11-05T06:45:53.569Z,10.14
2022-11-05T06:46:53.550Z,10.17
2022-11-05T06:47:53.560Z,10.17
2022-11-05T06:48:53.550Z,10.21
2022-11-05T06:49:53.520Z,10.09
2022-11-05T06:50:53.509Z,10.12
2022-11-05T06:51:53.498Z,10.12
2022-11-05T06:52:53.511Z,10.09
2022-11-05T06:53:53.500Z,10.09
2022-11-05T06:54:53.630Z,10.14
2022-11-05T06:55:53.450Z,10.18
2022-11-05T06:56:53.447Z,10.17
2022-11-05T06:57:53.439Z,10.17
2022-11-05T06:58:53.441Z,10.10
2022-11-05T06:59:58.753Z,10.03
2022-11-05T07:00:54.426Z,10.10
2022-11-05T07:01:53.467Z,10.14
2022-11-05T07:02:53.395Z,10.14
2022-11-05T07:03:53.361Z,10.24
2022-11-05T07:04:53.371Z,10.08
2022-11-05T07:05:53.349Z,10.16
2022-11-05T07:06:53.333Z,10.12
2022-11-05T07:07:53.320Z,10.16
2022-11-05T07:08:53.314Z,10.10
2022-11-05T07:09:53.320Z,10.17
2022-11-05T07:10:53.309Z,10.10
2022-11-05T07:11:53.279Z,10.16
2022-11-05T07:12:53.269Z,10.18
2022-11-05T07:13:53.274Z,10.09
2022-11-05T07:14:53.265Z,10.10
2022-11-05T07:15:53.238Z,10.16
2022-11-05T07:16:53.244Z,10.17
2022-11-05T07:17:53.221Z,10.12
2022-11-05T07:18:53.203Z,10.17
2022-11-05T07:19:53.226Z,10.14
2022-11-05T07:20:53.227Z,10.09
2022-11-05T07:21:53.164Z,10.17
2022-11-05T07:22:53.154Z,10.17
2022-11-05T07:23:53.155Z,10.17
2022-11-05T07:24:53.157Z,10.17
2022-11-05T07:25:53.126Z,10.17
2022-11-05T07:26:53.134Z,10.14
2022-11-05T07:27:53.125Z,10.16
2022-11-05T07:28:53.092Z,10.17
2022-11-05T07:29:53.078Z,10.09
2022-11-05T07:30:53.066Z,10.14
2022-11-05T07:31:53.071Z,10.14
2022-11-05T07:32:53.079Z,10.23
2022-11-05T07:33:53.037Z,10.26
2022-11-05T07:34:53.024Z,10.23
2022-11-05T07:35:53.019Z,10.23
2022-11-05T07:36:53.010Z,10.23
2022-11-05T07:37:53.020Z,10.21
2022-11-05T07:38:57.399Z,10.18
2022-11-05T07:39:53.969Z,10.21
2022-11-05T07:40:52.958Z,10.18
2022-11-05T07:41:52.947Z,10.18
2022-11-05T07:42:52.984Z,10.26
2022-11-05T07:43:52.925Z,10.23
2022-11-05T07:44:52.916Z,10.21
2022-11-05T07:45:52.910Z,10.28
2022-11-05T07:46:52.894Z,10.18
2022-11-05T07:47:52.913Z,10.26
2022-11-05T07:48:52.874Z,10.24
2022-11-05T07:49:52.888Z,10.18
2022-11-05T07:50:52.873Z,10.26
2022-11-05T07:51:52.844Z,10.26
2022-11-05T07:52:52.831Z,10.23
2022-11-05T07:53:52.818Z,10.26
2022-11-05T07:54:52.809Z,10.18
2022-11-05T07:55:52.824Z,10.30
2022-11-05T07:56:52.810Z,10.24
2022-11-05T07:57:52.772Z,10.27
2022-11-05T07:58:52.783Z,10.27
2022-11-05T07:59:52.755Z,10.24
2022-11-05T08:00:52.904Z,10.20
2022-11-05T08:01:52.984Z,10.26
2022-11-05T08:02:52.959Z,10.26
2022-11-05T08:03:52.708Z,10.28
2022-11-05T08:04:52.703Z,10.27
2022-11-05T08:05:52.724Z,10.27
2022-11-05T08:06:52.676Z,10.21
2022-11-05T08:07:52.691Z,10.27
2022-11-05T08:08:52.655Z,10.35
2022-11-05T08:09:52.642Z,10.28
2022-11-05T08:10:52.656Z,10.27
2022-11-05T08:11:53.317Z,10.23
2022-11-05T08:12:52.612Z,10.27
2022-11-05T08:13:52.599Z,10.28
2022-11-05T08:14:52.678Z,10.34
2022-11-05T08:15:52.598Z,10.26
2022-11-05T08:16:52.570Z,10.27
2022-11-05T08:17:52.553Z,10.27
2022-11-05T08:18:52.545Z,10.30
2022-11-05T08:19:52.538Z,10.26
2022-11-05T08:20:52.543Z,10.34
2022-11-05T08:21:52.516Z,10.24
2022-11-05T08:22:52.503Z,10.27
2022-11-05T08:23:52.490Z,10.27
2022-11-05T08:24:52.495Z,10.27
2022-11-05T08:25:52.503Z,10.26
2022-11-05T08:26:52.457Z,10.26
2022-11-05T08:27:52.450Z,10.26
2022-11-05T08:28:52.435Z,10.24
2022-11-05T08:29:52.431Z,10.34
2022-11-05T08:30:52.432Z,10.36
2022-11-05T08:31:52.432Z,10.27
2022-11-05T08:32:52.389Z,10.35
2022-11-05T08:33:52.388Z,10.30
2022-11-05T08:34:52.373Z,10.28
2022-11-05T08:35:52.368Z,10.27
2022-11-05T08:36:52.367Z,10.28
2022-11-05T08:37:52.333Z,10.28
2022-11-05T08:38:52.327Z,10.31
2022-11-05T08:39:52.336Z,10.36
2022-11-05T08:40:52.305Z,10.28
2022-11-05T08:41:52.302Z,10.36
2022-11-05T08:42:52.277Z,10.31
2022-11-05T08:43:52.290Z,10.28
2022-11-05T08:44:52.261Z,10.30
2022-11-05T08:45:52.255Z,10.30
2022-11-05T08:46:52.264Z,10.28
2022-11-05T08:47:52.234Z,10.31
2022-11-05T08:48:52.238Z,10.38
2022-11-05T08:49:52.206Z,10.26
2022-11-05T08:50:52.218Z,10.24
2022-11-05T08:51:52.192Z,10.31
2022-11-05T08:52:52.173Z,10.34
2022-11-05T08:53:52.167Z,10.39
2022-11-05T08:54:52.148Z,10.35
2022-11-05T08:55:52.165Z,10.41
2022-11-05T08:56:52.141Z,10.39
2022-11-05T08:57:52.129Z,10.41
2022-11-05T08:58:52.113Z,10.42
2022-11-05T08:59:52.092Z,10.36
2022-11-05T09:00:52.139Z,10.43
2022-11-05T09:01:52.301Z,10.39
2022-11-05T09:02:52.104Z,10.43
2022-11-05T09:03:52.051Z,10.41
2022-11-05T09:04:52.071Z,10.42
2022-11-05T09:05:52.032Z,10.43
2022-11-05T09:06:52.019Z,10.45
2022-11-05T09:07:56.458Z,10.48
2022-11-05T09:08:52.999Z,10.39
2022-11-05T09:09:51.990Z,10.45
2022-11-05T09:10:52.000Z,10.45
2022-11-05T09:12:52.977Z,10.45
2022-11-05T09:13:51.978Z,10.45
2022-11-05T09:14:51.941Z,10.42
2022-11-05T09:15:51.925Z,10.41
2022-11-05T09:16:51.929Z,10.49
2022-11-05T09:17:51.908Z,10.52
2022-11-05T09:18:51.924Z,10.52
2022-11-05T09:19:51.881Z,10.46
2022-11-05T09:20:51.900Z,10.48
2022-11-05T09:21:51.874Z,10.52
2022-11-05T09:22:51.845Z,10.55
2022-11-05T09:23:51.832Z,10.54
2022-11-05T09:24:51.824Z,10.57
2022-11-05T09:25:51.809Z,10.55
2022-11-05T09:26:51.832Z,10.57
2022-11-05T09:27:51.800Z,10.55
2022-11-05T09:28:51.818Z,10.55
2022-11-05T09:29:51.772Z,10.60
2022-11-05T09:30:51.761Z,10.52
2022-11-05T09:31:51.767Z,10.65
2022-11-05T09:32:51.744Z,10.52
2022-11-05T09:33:51.729Z,10.65
2022-11-05T09:34:51.737Z,10.64
2022-11-05T09:35:51.717Z,10.64
2022-11-05T09:36:51.727Z,10.65
2022-11-05T09:37:54.523Z,10.62
2022-11-05T09:38:52.673Z,10.58
2022-11-05T09:39:51.672Z,10.67
2022-11-05T09:40:51.651Z,10.65
2022-11-05T09:41:51.641Z,10.65
2022-11-05T09:42:51.653Z,10.65
2022-11-05T09:43:51.619Z,10.73
2022-11-05T09:44:51.610Z,10.61
2022-11-05T09:45:51.597Z,10.68
2022-11-05T09:46:51.588Z,10.64
2022-11-05T09:47:51.599Z,10.75
2022-11-05T09:48:51.564Z,10.70
2022-11-05T09:49:51.555Z,10.72
2022-11-05T09:50:51.682Z,10.67
2022-11-05T09:51:51.532Z,10.75
2022-11-05T09:52:51.540Z,10.78
2022-11-05T09:53:51.506Z,10.76
2022-11-05T09:54:51.494Z,10.75
2022-11-05T09:55:51.490Z,10.73
2022-11-05T09:56:51.478Z,10.83
2022-11-05T09:57:51.497Z,10.79
2022-11-05T09:58:51.452Z,10.83
2022-11-05T09:59:51.446Z,10.83
2022-11-05T10:00:51.457Z,10.86
2022-11-05T10:01:51.617Z,10.80
2022-11-05T10:02:51.417Z,10.82
2022-11-05T10:03:51.420Z,10.91
2022-11-05T10:04:51.429Z,10.91
2022-11-05T10:05:51.462Z,10.85
2022-11-05T10:06:51.393Z,10.94
2022-11-05T10:07:51.355Z,10.85
2022-11-05T10:08:51.368Z,10.82
2022-11-05T10:09:51.334Z,10.93
2022-11-05T10:10:51.320Z,10.93
2022-11-05T10:11:51.311Z,10.94
2022-11-05T10:12:51.301Z,10.97
2022-11-05T10:13:51.314Z,10.97
2022-11-05T10:14:51.315Z,10.94
2022-11-05T10:15:51.264Z,10.95
2022-11-05T10:16:51.297Z,11.09
2022-11-05T10:17:51.245Z,11.00
2022-11-05T10:18:51.239Z,11.01
2022-11-05T10:19:51.226Z,11.00
2022-11-05T10:20:51.214Z,11.04
2022-11-05T10:22:06.257Z,11.08
2022-11-05T10:22:52.348Z,10.94
2022-11-05T10:23:51.178Z,10.98
2022-11-05T10:24:51.170Z,11.05
2022-11-05T10:25:51.158Z,10.97
2022-11-05T10:26:51.169Z,11.11
2022-11-05T10:27:51.136Z,11.08
2022-11-05T10:28:51.125Z,11.03
2022-11-05T10:29:51.115Z,11.15
2022-11-05T10:30:51.104Z,11.13
2022-11-05T10:31:51.111Z,11.20
2022-11-05T10:32:51.079Z,11.20
2022-11-05T10:33:51.069Z,11.20
2022-11-05T10:34:51.064Z,11.22
2022-11-05T10:35:51.050Z,11.30
2022-11-05T10:36:51.062Z,11.27
2022-11-05T10:37:51.042Z,11.31
2022-11-05T10:38:51.034Z,11.37
2022-11-05T10:39:51.004Z,11.34
2022-11-05T10:40:50.995Z,11.37
2022-11-05T10:41:51.002Z,11.43
2022-11-05T10:42:50.971Z,11.49
2022-11-05T10:43:50.991Z,11.54
2022-11-05T10:44:50.951Z,11.46
2022-11-05T10:45:50.946Z,11.51
2022-11-05T10:46:50.932Z,11.54
2022-11-05T10:47:50.939Z,11.59
2022-11-05T10:48:50.902Z,11.55
2022-11-05T10:49:50.895Z,11.62
2022-11-05T10:50:50.884Z,11.69
2022-11-05T10:51:50.876Z,11.70
2022-11-05T10:52:50.883Z,11.74
2022-11-05T10:53:50.849Z,11.71
2022-11-05T10:54:50.888Z,11.79
2022-11-05T10:55:50.822Z,11.82
2022-11-05T10:56:50.816Z,11.79
2022-11-05T10:57:50.807Z,11.82
2022-11-05T10:58:50.799Z,11.85
2022-11-05T10:59:50.800Z,11.93
2022-11-05T11:00:50.830Z,11.96
2022-11-05T11:01:50.904Z,11.91
2022-11-05T11:02:50.779Z,11.93
2022-11-05T11:03:50.736Z,11.97
2022-11-05T11:04:50.729Z,12.03
2022-11-05T11:05:50.714Z,12.03
2022-11-05T11:06:50.747Z,11.97
2022-11-05T11:07:50.697Z,12.15
2022-11-05T11:08:50.681Z,12.21
2022-11-05T11:09:50.674Z,12.23
2022-11-05T11:10:50.686Z,12.28
2022-11-05T11:11:50.682Z,12.25
2022-11-05T11:12:50.639Z,12.32
2022-11-05T11:13:50.656Z,12.43
2022-11-05T11:14:50.618Z,12.40
2022-11-05T11:15:50.606Z,12.41
2022-11-05T11:16:50.594Z,12.44
2022-11-05T11:17:50.601Z,12.46
2022-11-05T11:18:50.588Z,12.54
2022-11-05T11:19:50.563Z,12.55
2022-11-05T11:20:50.553Z,12.54
2022-11-05T11:21:50.543Z,12.62
2022-11-05T11:22:50.549Z,12.66
2022-11-05T11:23:50.524Z,12.71
2022-11-05T11:24:50.508Z,12.72
2022-11-05T11:25:50.497Z,12.80
2022-11-05T11:26:50.514Z,12.79
2022-11-05T11:27:50.493Z,12.93
2022-11-05T11:28:50.470Z,12.90
2022-11-05T11:29:50.476Z,12.86
2022-11-05T11:30:50.440Z,12.93
2022-11-05T11:31:50.429Z,12.98
2022-11-05T11:32:50.423Z,13.04
2022-11-05T11:33:50.434Z,13.05
2022-11-05T11:34:50.398Z,13.08
2022-11-05T11:35:50.408Z,13.20
2022-11-05T11:36:50.380Z,13.17
2022-11-05T11:37:50.362Z,13.35
2022-11-05T11:38:50.362Z,13.24
2022-11-05T11:39:50.359Z,13.29
2022-11-05T11:40:50.353Z,13.35
2022-11-05T11:41:50.324Z,13.42
2022-11-05T11:42:50.378Z,13.40
2022-11-05T11:43:50.299Z,13.40
2022-11-05T11:44:50.304Z,13.43
2022-11-05T11:45:50.309Z,13.57
2022-11-05T11:46:50.275Z,13.57
2022-11-05T11:47:50.260Z,13.64
2022-11-05T11:48:50.248Z,13.64
2022-11-05T11:49:50.258Z,13.73
2022-11-05T11:50:50.251Z,13.67
2022-11-05T11:51:50.393Z,13.73
2022-11-05T11:52:50.199Z,13.64
2022-11-05T11:53:50.184Z,13.73
2022-11-05T11:54:50.177Z,13.79
2022-11-05T11:55:50.184Z,13.80
2022-11-05T11:56:50.156Z,13.78
2022-11-05T11:57:50.167Z,13.85
2022-11-05T11:58:50.168Z,13.88
2022-11-05T12:00:10.201Z,13.83
2022-11-05T12:00:51.144Z,13.86
2022-11-05T12:01:50.393Z,13.90
2022-11-05T12:02:50.140Z,14.00
2022-11-05T12:03:50.091Z,14.05
2022-11-05T12:04:50.069Z,14.08
2022-11-05T12:05:50.055Z,14.05
2022-11-05T12:06:50.070Z,14.05
2022-11-05T12:07:50.037Z,14.08
2022-11-05T12:08:58.164Z,14.13
2022-11-05T12:09:51.006Z,14.08
2022-11-05T12:10:50.009Z,14.09
2022-11-05T12:11:50.007Z,14.12
2022-11-05T12:12:50.001Z,14.19
2022-11-05T12:13:49.975Z,14.15
2022-11-05T12:14:49.972Z,14.13
2022-11-05T12:15:49.942Z,14.21
2022-11-05T12:16:49.933Z,14.16
2022-11-05T12:17:49.947Z,14.19
2022-11-05T12:18:49.913Z,14.31
2022-11-05T12:19:49.898Z,14.21
2022-11-05T12:20:52.791Z,14.31
2022-11-05T12:21:53.479Z,14.30
2022-11-05T12:22:49.891Z,14.22
2022-11-05T12:23:49.881Z,14.26
2022-11-05T12:24:49.851Z,14.34
2022-11-05T12:25:49.839Z,14.33
2022-11-05T12:26:49.823Z,14.34
2022-11-05T12:27:49.837Z,14.34
2022-11-05T12:29:16.664Z,14.30
2022-11-05T12:29:50.793Z,14.30
2022-11-05T12:30:49.801Z,14.30
2022-11-05T12:31:49.772Z,14.34
2022-11-05T12:32:49.950Z,14.30
2022-11-05T12:33:49.767Z,14.34
2022-11-05T12:34:49.739Z,14.28
2022-11-05T12:35:54.844Z,14.30
2022-11-05T12:36:50.749Z,14.27
2022-11-05T12:37:49.705Z,14.31
2022-11-05T12:38:49.697Z,14.36
2022-11-05T12:39:49.685Z,14.31
2022-11-05T12:40:49.672Z,14.28
2022-11-05T12:41:49.658Z,14.27
2022-11-05T12:42:49.679Z,14.23
2022-11-05T12:43:49.638Z,14.27
2022-11-05T12:44:49.663Z,14.27
2022-11-05T12:45:49.620Z,14.26
2022-11-05T12:46:49.727Z,14.31
2022-11-05T12:47:49.595Z,14.34
2022-11-05T12:48:49.591Z,14.34
2022-11-05T12:49:49.579Z,14.34
2022-11-05T12:50:49.586Z,14.31
2022-11-05T12:51:49.556Z,14.33
2022-11-05T12:52:49.572Z,14.23
2022-11-05T12:53:49.529Z,14.21
2022-11-05T12:54:49.526Z,14.33